sensor_id;sensor_type;location;lat;lon;timestamp;P1;durP1;ratioP1;P2;durP2;ratioP2
48813;SDS011;34634;44.108;3.074;2022-09-01T00:02:18;4.32;;;3.25;;
48813;SDS011;34634;44.108;3.074;2022-09-01T00:04:45;4.32;;;2.85;;
48813;SDS011;34634;44.108;3.074;2022-09-01T00:07:12;4.22;;;3.22;;
48813;SDS011;34634;44.108;3.074;2022-09-01T00:09:39;5.38;;;3.17;;
48813;SDS011;34634;44.108;3.074;2022-09-01T00:12:06;3.47;;;2.90;;
48813;SDS011;34634;44.108;3.074;2022-09-01T00:14:34;3.30;;;3.00;;
48813;SDS011;34634;44.108;3.074;2022-09-01T00:17:02;4.43;;;3.30;;
48813;SDS011;34634;44.108;3.074;2022-09-01T00:19:29;4.88;;;3.08;;
48813;SDS011;34634;44.108;3.074;2022-09-01T00:21:58;5.00;;;3.30;;
48813;SDS011;34634;44.108;3.074;2022-09-01T00:24:24;4.65;;;3.17;;
48813;SDS011;34634;44.108;3.074;2022-09-01T00:26:51;3.40;;;3.10;;
48813;SDS011;34634;44.108;3.074;2022-09-01T00:29:18;5.18;;;3.58;;
48813;SDS011;34634;44.108;3.074;2022-09-01T00:31:45;6.13;;;3.53;;
48813;SDS011;34634;44.108;3.074;2022-09-01T00:34:11;4.15;;;3.20;;
48813;SDS011;34634;44.108;3.074;2022-09-01T00:36:38;4.68;;;3.13;;
48813;SDS011;34634;44.108;3.074;2022-09-01T00:39:04;7.78;;;3.55;;
48813;SDS011;34634;44.108;3.074;2022-09-01T00:41:32;4.10;;;3.63;;
48813;SDS011;34634;44.108;3.074;2022-09-01T00:44:00;7.93;;;3.65;;
48813;SDS011;34634;44.108;3.074;2022-09-01T00:46:30;4.88;;;3.40;;
48813;SDS011;34634;44.108;3.074;2022-09-01T00:51:34;4.35;;;3.60;;
48813;SDS011;34634;44.108;3.074;2022-09-01T00:54:03;4.60;;;3.47;;
48813;SDS011;34634;44.108;3.074;2022-09-01T00:56:30;4.55;;;3.53;;
48813;SDS011;34634;44.108;3.074;2022-09-01T00:58:57;5.28;;;3.33;;
48813;SDS011;34634;44.108;3.074;2022-09-01T01:01:24;4.05;;;3.15;;
48813;SDS011;34634;44.108;3.074;2022-09-01T01:03:50;4.80;;;3.25;;
48813;SDS011;34634;44.108;3.074;2022-09-01T01:06:17;5.38;;;3.83;;
48813;SDS011;34634;44.108;3.074;2022-09-01T01:08:46;4.68;;;3.67;;
48813;SDS011;34634;44.108;3.074;2022-09-01T01:11:27;5.85;;;3.88;;
48813;SDS011;34634;44.108;3.074;2022-09-01T01:13:55;4.97;;;3.65;;
48813;SDS011;34634;44.108;3.074;2022-09-01T01:16:23;5.75;;;4.05;;
48813;SDS011;34634;44.108;3.074;2022-09-01T01:18:50;7.57;;;4.03;;
48813;SDS011;34634;44.108;3.074;2022-09-01T01:21:18;5.80;;;3.50;;
48813;SDS011;34634;44.108;3.074;2022-09-01T01:26:30;5.63;;;3.70;;
48813;SDS011;34634;44.108;3.074;2022-09-01T01:28:57;6.10;;;4.28;;
48813;SDS011;34634;44.108;3.074;2022-09-01T01:31:24;6.55;;;4.15;;
48813;SDS011;34634;44.108;3.074;2022-09-01T01:33:51;4.63;;;3.75;;
48813;SDS011;34634;44.108;3.074;2022-09-01T01:36:25;4.75;;;4.15;;
48813;SDS011;34634;44.108;3.074;2022-09-01T01:39:00;6.60;;;4.43;;
48813;SDS011;34634;44.108;3.074;2022-09-01T01:41:31;5.13;;;3.90;;
48813;SDS011;34634;44.108;3.074;2022-09-01T01:43:59;12.50;;;4.63;;
48813;SDS011;34634;44.108;3.074;2022-09-01T01:46:29;8.80;;;4.00;;
48813;SDS011;34634;44.108;3.074;2022-09-01T01:48:55;5.45;;;4.18;;
48813;SDS011;34634;44.108;3.074;2022-09-01T01:51:22;6.88;;;4.70;;
48813;SDS011;34634;44.108;3.074;2022-09-01T01:53:53;9.93;;;4.07;;
48813;SDS011;34634;44.108;3.074;2022-09-01T01:56:20;6.88;;;3.70;;
48813;SDS011;34634;44.108;3.074;2022-09-01T01:58:53;6.00;;;4.35;;
48813;SDS011;34634;44.108;3.074;2022-09-01T02:03:50;5.82;;;4.20;;
48813;SDS011;34634;44.108;3.074;2022-09-01T02:06:19;8.80;;;4.15;;
48813;SDS011;34634;44.108;3.074;2022-09-01T02:08:49;6.00;;;4.32;;
48813;SDS011;34634;44.108;3.074;2022-09-01T02:11:16;6.70;;;3.95;;
48813;SDS011;34634;44.108;3.074;2022-09-01T02:13:43;5.40;;;4.07;;
48813;SDS011;34634;44.108;3.074;2022-09-01T02:16:10;5.32;;;4.05;;
48813;SDS011;34634;44.108;3.074;2022-09-01T02:18:39;7.50;;;4.10;;
48813;SDS011;34634;44.108;3.074;2022-09-01T02:21:07;5.03;;;3.92;;
48813;SDS011;34634;44.108;3.074;2022-09-01T02:23:36;7.15;;;4.57;;
48813;SDS011;34634;44.108;3.074;2022-09-01T02:26:03;4.18;;;3.75;;
48813;SDS011;34634;44.108;3.074;2022-09-01T02:28:32;7.95;;;4.50;;
48813;SDS011;34634;44.108;3.074;2022-09-01T02:31:01;7.07;;;4.07;;
48813;SDS011;34634;44.108;3.074;2022-09-01T02:33:29;9.18;;;4.15;;
48813;SDS011;34634;44.108;3.074;2022-09-01T02:35:56;8.68;;;4.13;;
48813;SDS011;34634;44.108;3.074;2022-09-01T02:38:23;5.05;;;4.55;;
48813;SDS011;34634;44.108;3.074;2022-09-01T02:40:54;7.85;;;4.35;;
48813;SDS011;34634;44.108;3.074;2022-09-01T02:43:21;5.75;;;4.53;;
48813;SDS011;34634;44.108;3.074;2022-09-01T02:45:48;6.07;;;4.65;;
48813;SDS011;34634;44.108;3.074;2022-09-01T02:48:20;9.32;;;4.20;;
48813;SDS011;34634;44.108;3.074;2022-09-01T02:53:18;5.13;;;4.22;;
48813;SDS011;34634;44.108;3.074;2022-09-01T02:55:44;6.78;;;4.45;;
48813;SDS011;34634;44.108;3.074;2022-09-01T02:58:11;7.93;;;4.18;;
48813;SDS011;34634;44.108;3.074;2022-09-01T03:00:43;5.53;;;4.93;;
48813;SDS011;34634;44.108;3.074;2022-09-01T03:03:10;7.75;;;4.80;;
48813;SDS011;34634;44.108;3.074;2022-09-01T03:05:43;8.13;;;4.70;;
48813;SDS011;34634;44.108;3.074;2022-09-01T03:08:10;6.00;;;5.00;;
48813;SDS011;34634;44.108;3.074;2022-09-01T03:10:41;9.07;;;4.27;;
48813;SDS011;34634;44.108;3.074;2022-09-01T03:13:09;5.10;;;4.50;;
48813;SDS011;34634;44.108;3.074;2022-09-01T03:15:36;7.45;;;4.53;;
48813;SDS011;34634;44.108;3.074;2022-09-01T03:18:03;5.43;;;4.93;;
48813;SDS011;34634;44.108;3.074;2022-09-01T03:20:31;5.35;;;4.28;;
48813;SDS011;34634;44.108;3.074;2022-09-01T03:23:01;7.68;;;4.45;;
48813;SDS011;34634;44.108;3.074;2022-09-01T03:25:29;6.28;;;5.00;;
48813;SDS011;34634;44.108;3.074;2022-09-01T03:27:56;5.32;;;4.20;;
48813;SDS011;34634;44.108;3.074;2022-09-01T03:30:26;6.65;;;4.85;;
48813;SDS011;34634;44.108;3.074;2022-09-01T03:32:57;7.43;;;4.45;;
48813;SDS011;34634;44.108;3.074;2022-09-01T03:35:24;6.95;;;4.10;;
48813;SDS011;34634;44.108;3.074;2022-09-01T03:37:53;7.00;;;4.60;;
48813;SDS011;34634;44.108;3.074;2022-09-01T03:40:33;6.43;;;4.43;;
48813;SDS011;34634;44.108;3.074;2022-09-01T03:43:01;8.52;;;4.95;;
48813;SDS011;34634;44.108;3.074;2022-09-01T03:45:28;6.65;;;4.50;;
48813;SDS011;34634;44.108;3.074;2022-09-01T03:47:56;7.25;;;4.60;;
48813;SDS011;34634;44.108;3.074;2022-09-01T03:50:23;4.82;;;4.35;;
48813;SDS011;34634;44.108;3.074;2022-09-01T03:52:51;5.20;;;4.70;;
48813;SDS011;34634;44.108;3.074;2022-09-01T03:55:19;15.70;;;4.55;;
48813;SDS011;34634;44.108;3.074;2022-09-01T03:57:48;5.90;;;4.85;;
48813;SDS011;34634;44.108;3.074;2022-09-01T04:00:15;4.85;;;4.45;;
48813;SDS011;34634;44.108;3.074;2022-09-01T04:02:46;6.97;;;5.07;;
48813;SDS011;34634;44.108;3.074;2022-09-01T04:05:14;6.47;;;5.15;;
48813;SDS011;34634;44.108;3.074;2022-09-01T04:07:41;6.22;;;4.80;;
48813;SDS011;34634;44.108;3.074;2022-09-01T04:10:10;8.50;;;5.00;;
48813;SDS011;34634;44.108;3.074;2022-09-01T04:12:36;6.10;;;4.63;;
48813;SDS011;34634;44.108;3.074;2022-09-01T04:15:03;6.15;;;4.97;;
48813;SDS011;34634;44.108;3.074;2022-09-01T04:17:30;7.90;;;5.10;;
48813;SDS011;34634;44.108;3.074;2022-09-01T04:20:15;6.63;;;4.85;;
48813;SDS011;34634;44.108;3.074;2022-09-01T04:22:44;6.43;;;4.32;;
48813;SDS011;34634;44.108;3.074;2022-09-01T04:25:15;6.28;;;4.95;;
48813;SDS011;34634;44.108;3.074;2022-09-01T04:27:59;8.23;;;4.80;;
48813;SDS011;34634;44.108;3.074;2022-09-01T04:30:37;6.90;;;5.18;;
48813;SDS011;34634;44.108;3.074;2022-09-01T04:33:05;8.05;;;4.75;;
48813;SDS011;34634;44.108;3.074;2022-09-01T04:35:36;6.18;;;4.80;;
48813;SDS011;34634;44.108;3.074;2022-09-01T04:38:03;7.10;;;5.35;;
48813;SDS011;34634;44.108;3.074;2022-09-01T04:40:31;6.78;;;5.30;;
48813;SDS011;34634;44.108;3.074;2022-09-01T04:42:58;7.38;;;5.35;;
48813;SDS011;34634;44.108;3.074;2022-09-01T04:45:24;9.38;;;4.55;;
48813;SDS011;34634;44.108;3.074;2022-09-01T04:47:52;6.82;;;4.63;;
48813;SDS011;34634;44.108;3.074;2022-09-01T04:50:19;8.68;;;5.05;;
48813;SDS011;34634;44.108;3.074;2022-09-01T04:52:46;8.45;;;5.00;;
48813;SDS011;34634;44.108;3.074;2022-09-01T04:55:13;8.25;;;5.65;;
48813;SDS011;34634;44.108;3.074;2022-09-01T04:57:43;8.40;;;5.40;;
48813;SDS011;34634;44.108;3.074;2022-09-01T05:00:18;6.60;;;4.93;;
48813;SDS011;34634;44.108;3.074;2022-09-01T05:02:49;8.00;;;5.10;;
48813;SDS011;34634;44.108;3.074;2022-09-01T05:05:17;9.80;;;4.93;;
48813;SDS011;34634;44.108;3.074;2022-09-01T05:07:43;7.20;;;5.55;;
48813;SDS011;34634;44.108;3.074;2022-09-01T05:10:09;7.25;;;5.72;;
48813;SDS011;34634;44.108;3.074;2022-09-01T05:12:36;6.68;;;5.47;;
48813;SDS011;34634;44.108;3.074;2022-09-01T05:15:03;7.90;;;5.65;;
48813;SDS011;34634;44.108;3.074;2022-09-01T05:17:33;6.18;;;5.25;;
48813;SDS011;34634;44.108;3.074;2022-09-01T05:20:02;9.25;;;5.55;;
48813;SDS011;34634;44.108;3.074;2022-09-01T05:22:29;8.85;;;5.28;;
48813;SDS011;34634;44.108;3.074;2022-09-01T05:24:59;5.97;;;5.10;;
48813;SDS011;34634;44.108;3.074;2022-09-01T05:27:36;9.05;;;5.60;;
48813;SDS011;34634;44.108;3.074;2022-09-01T05:30:06;8.43;;;5.40;;
48813;SDS011;34634;44.108;3.074;2022-09-01T05:32:33;5.95;;;5.25;;
48813;SDS011;34634;44.108;3.074;2022-09-01T05:35:02;6.93;;;5.22;;
48813;SDS011;34634;44.108;3.074;2022-09-01T05:37:35;11.70;;;5.20;;
48813;SDS011;34634;44.108;3.074;2022-09-01T05:40:05;11.43;;;5.63;;
48813;SDS011;34634;44.108;3.074;2022-09-01T05:42:34;8.27;;;5.20;;
48813;SDS011;34634;44.108;3.074;2022-09-01T05:45:03;6.72;;;5.05;;
48813;SDS011;34634;44.108;3.074;2022-09-01T05:47:31;8.35;;;5.55;;
48813;SDS011;34634;44.108;3.074;2022-09-01T05:50:01;7.50;;;5.18;;
48813;SDS011;34634;44.108;3.074;2022-09-01T05:52:28;12.93;;;5.65;;
48813;SDS011;34634;44.108;3.074;2022-09-01T05:54:58;9.40;;;5.50;;
48813;SDS011;34634;44.108;3.074;2022-09-01T05:57:25;9.43;;;5.07;;
48813;SDS011;34634;44.108;3.074;2022-09-01T05:59:51;7.88;;;5.35;;
48813;SDS011;34634;44.108;3.074;2022-09-01T06:02:19;6.10;;;4.93;;
48813;SDS011;34634;44.108;3.074;2022-09-01T06:04:46;6.72;;;4.85;;
48813;SDS011;34634;44.108;3.074;2022-09-01T06:07:14;11.52;;;5.47;;
48813;SDS011;34634;44.108;3.074;2022-09-01T06:09:41;14.00;;;5.50;;
48813;SDS011;34634;44.108;3.074;2022-09-01T06:12:09;9.05;;;5.70;;
48813;SDS011;34634;44.108;3.074;2022-09-01T06:14:45;7.70;;;5.30;;
48813;SDS011;34634;44.108;3.074;2022-09-01T06:17:12;8.40;;;4.70;;
48813;SDS011;34634;44.108;3.074;2022-09-01T06:19:41;7.53;;;4.97;;
48813;SDS011;34634;44.108;3.074;2022-09-01T06:22:07;8.13;;;5.25;;
48813;SDS011;34634;44.108;3.074;2022-09-01T06:24:35;10.00;;;5.32;;
48813;SDS011;34634;44.108;3.074;2022-09-01T06:27:04;11.43;;;5.75;;
48813;SDS011;34634;44.108;3.074;2022-09-01T06:29:34;14.15;;;4.60;;
48813;SDS011;34634;44.108;3.074;2022-09-01T06:32:04;26.98;;;6.03;;
48813;SDS011;34634;44.108;3.074;2022-09-01T06:37:01;23.95;;;5.43;;
48813;SDS011;34634;44.108;3.074;2022-09-01T06:39:27;14.07;;;5.55;;
48813;SDS011;34634;44.108;3.074;2022-09-01T06:41:53;20.80;;;6.28;;
48813;SDS011;34634;44.108;3.074;2022-09-01T06:44:22;33.05;;;6.93;;
48813;SDS011;34634;44.108;3.074;2022-09-01T06:46:49;32.88;;;6.60;;
48813;SDS011;34634;44.108;3.074;2022-09-01T06:49:16;17.13;;;6.13;;
48813;SDS011;34634;44.108;3.074;2022-09-01T06:51:43;13.10;;;5.53;;
48813;SDS011;34634;44.108;3.074;2022-09-01T06:54:13;15.13;;;5.47;;
48813;SDS011;34634;44.108;3.074;2022-09-01T06:56:40;13.98;;;5.25;;
48813;SDS011;34634;44.108;3.074;2022-09-01T06:59:07;16.65;;;5.25;;
48813;SDS011;34634;44.108;3.074;2022-09-01T07:01:34;11.63;;;5.50;;
48813;SDS011;34634;44.108;3.074;2022-09-01T07:04:03;14.25;;;5.35;;
48813;SDS011;34634;44.108;3.074;2022-09-01T07:06:29;6.20;;;5.22;;
48813;SDS011;34634;44.108;3.074;2022-09-01T07:08:57;14.90;;;5.65;;
48813;SDS011;34634;44.108;3.074;2022-09-01T07:11:25;10.20;;;5.00;;
48813;SDS011;34634;44.108;3.074;2022-09-01T07:13:53;8.07;;;5.03;;
48813;SDS011;34634;44.108;3.074;2022-09-01T07:16:21;9.65;;;5.30;;
48813;SDS011;34634;44.108;3.074;2022-09-01T07:18:48;13.23;;;5.03;;
48813;SDS011;34634;44.108;3.074;2022-09-01T07:21:15;7.70;;;4.38;;
48813;SDS011;34634;44.108;3.074;2022-09-01T07:23:41;6.55;;;4.82;;
48813;SDS011;34634;44.108;3.074;2022-09-01T07:26:08;5.63;;;5.03;;
48813;SDS011;34634;44.108;3.074;2022-09-01T07:28:36;7.55;;;4.53;;
48813;SDS011;34634;44.108;3.074;2022-09-01T07:31:02;8.88;;;4.90;;
48813;SDS011;34634;44.108;3.074;2022-09-01T07:33:30;7.15;;;4.60;;
48813;SDS011;34634;44.108;3.074;2022-09-01T07:35:57;5.45;;;4.30;;
48813;SDS011;34634;44.108;3.074;2022-09-01T07:38:24;7.25;;;4.60;;
48813;SDS011;34634;44.108;3.074;2022-09-01T07:40:52;6.30;;;4.60;;
48813;SDS011;34634;44.108;3.074;2022-09-01T07:43:20;9.35;;;4.80;;
48813;SDS011;34634;44.108;3.074;2022-09-01T07:45:50;8.47;;;4.90;;
48813;SDS011;34634;44.108;3.074;2022-09-01T07:48:19;18.55;;;5.53;;
48813;SDS011;34634;44.108;3.074;2022-09-01T07:50:45;6.65;;;4.70;;
48813;SDS011;34634;44.108;3.074;2022-09-01T07:53:13;81.68;;;8.30;;
48813;SDS011;34634;44.108;3.074;2022-09-01T07:55:43;48.50;;;7.70;;
48813;SDS011;34634;44.108;3.074;2022-09-01T07:58:13;23.25;;;6.00;;
48813;SDS011;34634;44.108;3.074;2022-09-01T08:00:40;63.83;;;7.15;;
48813;SDS011;34634;44.108;3.074;2022-09-01T08:03:11;12.82;;;5.35;;
48813;SDS011;34634;44.108;3.074;2022-09-01T08:05:37;7.93;;;5.00;;
48813;SDS011;34634;44.108;3.074;2022-09-01T08:08:03;10.80;;;5.53;;
48813;SDS011;34634;44.108;3.074;2022-09-01T08:10:30;7.22;;;5.40;;
48813;SDS011;34634;44.108;3.074;2022-09-01T08:12:56;9.77;;;5.30;;
48813;SDS011;34634;44.108;3.074;2022-09-01T08:15:23;8.82;;;5.00;;
48813;SDS011;34634;44.108;3.074;2022-09-01T08:17:50;8.95;;;5.20;;
48813;SDS011;34634;44.108;3.074;2022-09-01T08:20:16;11.48;;;5.40;;
48813;SDS011;34634;44.108;3.074;2022-09-01T08:22:42;6.97;;;5.43;;
48813;SDS011;34634;44.108;3.074;2022-09-01T08:25:09;5.63;;;4.95;;
48813;SDS011;34634;44.108;3.074;2022-09-01T08:27:36;7.97;;;4.78;;
48813;SDS011;34634;44.108;3.074;2022-09-01T08:32:36;6.70;;;4.88;;
48813;SDS011;34634;44.108;3.074;2022-09-01T08:35:02;7.55;;;5.22;;
48813;SDS011;34634;44.108;3.074;2022-09-01T08:37:29;6.43;;;5.35;;
48813;SDS011;34634;44.108;3.074;2022-09-01T08:39:56;11.93;;;5.32;;
48813;SDS011;34634;44.108;3.074;2022-09-01T08:47:21;6.95;;;4.78;;
48813;SDS011;34634;44.108;3.074;2022-09-01T08:49:47;6.93;;;5.03;;
48813;SDS011;34634;44.108;3.074;2022-09-01T08:57:46;8.30;;;4.95;;
48813;SDS011;34634;44.108;3.074;2022-09-01T09:00:17;55.95;;;7.80;;
48813;SDS011;34634;44.108;3.074;2022-09-01T09:10:29;12.98;;;4.78;;
48813;SDS011;34634;44.108;3.074;2022-09-01T09:13:09;24.00;;;6.05;;
48813;SDS011;34634;44.108;3.074;2022-09-01T09:18:23;8.32;;;4.78;;
48813;SDS011;34634;44.108;3.074;2022-09-01T09:20:52;6.70;;;4.63;;
48813;SDS011;34634;44.108;3.074;2022-09-01T09:23:22;11.20;;;5.10;;
48813;SDS011;34634;44.108;3.074;2022-09-01T09:25:49;9.38;;;4.38;;
48813;SDS011;34634;44.108;3.074;2022-09-01T09:28:16;9.60;;;4.10;;
48813;SDS011;34634;44.108;3.074;2022-09-01T09:30:42;11.15;;;5.05;;
48813;SDS011;34634;44.108;3.074;2022-09-01T09:33:08;6.78;;;4.13;;
48813;SDS011;34634;44.108;3.074;2022-09-01T09:35:40;6.55;;;4.95;;
48813;SDS011;34634;44.108;3.074;2022-09-01T09:49:38;9.00;;;5.20;;
48813;SDS011;34634;44.108;3.074;2022-09-01T09:51:49;6.95;;;5.10;;
48813;SDS011;34634;44.108;3.074;2022-09-01T09:54:20;7.32;;;4.28;;
48813;SDS011;34634;44.108;3.074;2022-09-01T09:56:47;10.52;;;5.07;;
48813;SDS011;34634;44.108;3.074;2022-09-01T10:01:44;10.77;;;5.18;;
48813;SDS011;34634;44.108;3.074;2022-09-01T10:04:10;12.73;;;5.78;;
48813;SDS011;34634;44.108;3.074;2022-09-01T10:06:55;8.35;;;5.38;;
48813;SDS011;34634;44.108;3.074;2022-09-01T10:11:50;7.22;;;5.53;;
48813;SDS011;34634;44.108;3.074;2022-09-01T10:14:19;14.70;;;5.50;;
48813;SDS011;34634;44.108;3.074;2022-09-01T10:16:46;6.90;;;5.28;;
48813;SDS011;34634;44.108;3.074;2022-09-01T10:19:15;11.43;;;5.20;;
48813;SDS011;34634;44.108;3.074;2022-09-01T10:21:42;9.85;;;5.18;;
48813;SDS011;34634;44.108;3.074;2022-09-01T10:26:45;5.45;;;4.60;;
48813;SDS011;34634;44.108;3.074;2022-09-01T10:29:15;6.85;;;4.43;;
48813;SDS011;34634;44.108;3.074;2022-09-01T10:31:43;8.18;;;4.65;;
48813;SDS011;34634;44.108;3.074;2022-09-01T10:34:14;8.27;;;4.80;;
48813;SDS011;34634;44.108;3.074;2022-09-01T10:36:42;8.68;;;4.82;;
48813;SDS011;34634;44.108;3.074;2022-09-01T10:39:10;12.50;;;5.03;;
48813;SDS011;34634;44.108;3.074;2022-09-01T10:44:09;7.07;;;4.95;;
48813;SDS011;34634;44.108;3.074;2022-09-01T10:49:02;6.57;;;4.55;;
48813;SDS011;34634;44.108;3.074;2022-09-01T10:51:42;5.53;;;4.47;;
48813;SDS011;34634;44.108;3.074;2022-09-01T10:54:09;6.97;;;4.45;;
48813;SDS011;34634;44.108;3.074;2022-09-01T10:56:55;11.32;;;4.63;;
48813;SDS011;34634;44.108;3.074;2022-09-01T10:59:27;7.30;;;4.60;;
48813;SDS011;34634;44.108;3.074;2022-09-01T11:09:25;8.68;;;3.92;;
48813;SDS011;34634;44.108;3.074;2022-09-01T11:14:34;7.00;;;4.13;;
48813;SDS011;34634;44.108;3.074;2022-09-01T11:19:59;5.70;;;3.70;;
48813;SDS011;34634;44.108;3.074;2022-09-01T11:22:31;8.70;;;4.07;;
48813;SDS011;34634;44.108;3.074;2022-09-01T11:33:24;5.38;;;3.67;;
48813;SDS011;34634;44.108;3.074;2022-09-01T11:36:02;13.50;;;4.20;;
48813;SDS011;34634;44.108;3.074;2022-09-01T11:38:35;10.43;;;3.35;;
48813;SDS011;34634;44.108;3.074;2022-09-01T11:41:03;4.85;;;3.78;;
48813;SDS011;34634;44.108;3.074;2022-09-01T11:43:29;9.80;;;3.88;;
48813;SDS011;34634;44.108;3.074;2022-09-01T11:48:22;6.35;;;3.83;;
48813;SDS011;34634;44.108;3.074;2022-09-01T11:50:58;5.18;;;3.58;;
48813;SDS011;34634;44.108;3.074;2022-09-01T11:53:26;6.18;;;3.78;;
48813;SDS011;34634;44.108;3.074;2022-09-01T11:55:53;4.25;;;3.85;;
48813;SDS011;34634;44.108;3.074;2022-09-01T12:00:55;7.55;;;4.25;;
48813;SDS011;34634;44.108;3.074;2022-09-01T12:03:25;6.53;;;3.80;;
48813;SDS011;34634;44.108;3.074;2022-09-01T12:06:03;8.40;;;3.90;;
48813;SDS011;34634;44.108;3.074;2022-09-01T12:08:32;7.75;;;4.00;;
48813;SDS011;34634;44.108;3.074;2022-09-01T12:11:03;6.70;;;3.83;;
48813;SDS011;34634;44.108;3.074;2022-09-01T12:13:30;8.98;;;4.20;;
48813;SDS011;34634;44.108;3.074;2022-09-01T12:16:00;8.85;;;3.80;;
48813;SDS011;34634;44.108;3.074;2022-09-01T12:18:43;5.80;;;3.80;;
48813;SDS011;34634;44.108;3.074;2022-09-01T12:21:17;10.68;;;3.85;;
48813;SDS011;34634;44.108;3.074;2022-09-01T12:23:44;7.38;;;3.40;;
48813;SDS011;34634;44.108;3.074;2022-09-01T12:26:12;4.43;;;3.25;;
48813;SDS011;34634;44.108;3.074;2022-09-01T12:28:39;5.95;;;3.58;;
48813;SDS011;34634;44.108;3.074;2022-09-01T12:31:07;10.43;;;3.50;;
48813;SDS011;34634;44.108;3.074;2022-09-01T12:33:37;7.18;;;3.70;;
48813;SDS011;34634;44.108;3.074;2022-09-01T12:38:39;7.35;;;3.80;;
48813;SDS011;34634;44.108;3.074;2022-09-01T12:41:21;4.82;;;3.63;;
48813;SDS011;34634;44.108;3.074;2022-09-01T12:43:48;6.93;;;3.58;;
48813;SDS011;34634;44.108;3.074;2022-09-01T12:46:38;4.53;;;3.35;;
48813;SDS011;34634;44.108;3.074;2022-09-01T12:49:22;4.63;;;3.00;;
48813;SDS011;34634;44.108;3.074;2022-09-01T12:51:47;6.72;;;3.42;;
48813;SDS011;34634;44.108;3.074;2022-09-01T12:54:15;7.88;;;3.67;;
48813;SDS011;34634;44.108;3.074;2022-09-01T12:56:49;7.13;;;3.20;;
48813;SDS011;34634;44.108;3.074;2022-09-01T12:59:23;6.72;;;3.50;;
48813;SDS011;34634;44.108;3.074;2022-09-01T13:01:50;5.90;;;3.17;;
48813;SDS011;34634;44.108;3.074;2022-09-01T13:06:47;6.95;;;3.28;;
48813;SDS011;34634;44.108;3.074;2022-09-01T13:09:14;8.23;;;3.38;;
48813;SDS011;34634;44.108;3.074;2022-09-01T13:11:41;4.82;;;3.10;;
48813;SDS011;34634;44.108;3.074;2022-09-01T13:14:07;3.90;;;3.25;;
48813;SDS011;34634;44.108;3.074;2022-09-01T13:16:34;5.10;;;3.58;;
48813;SDS011;34634;44.108;3.074;2022-09-01T13:19:01;3.85;;;3.33;;
48813;SDS011;34634;44.108;3.074;2022-09-01T13:21:28;12.23;;;3.22;;
48813;SDS011;34634;44.108;3.074;2022-09-01T13:23:55;4.68;;;3.28;;
48813;SDS011;34634;44.108;3.074;2022-09-01T13:26:21;5.82;;;3.55;;
48813;SDS011;34634;44.108;3.074;2022-09-01T13:28:48;6.20;;;3.45;;
48813;SDS011;34634;44.108;3.074;2022-09-01T13:31:15;5.65;;;3.20;;
48813;SDS011;34634;44.108;3.074;2022-09-01T13:33:41;5.68;;;3.63;;
48813;SDS011;34634;44.108;3.074;2022-09-01T13:36:08;7.18;;;3.20;;
48813;SDS011;34634;44.108;3.074;2022-09-01T13:38:34;4.15;;;3.40;;
48813;SDS011;34634;44.108;3.074;2022-09-01T13:41:01;6.47;;;2.83;;
48813;SDS011;34634;44.108;3.074;2022-09-01T13:43:27;5.47;;;3.15;;
48813;SDS011;34634;44.108;3.074;2022-09-01T13:45:53;5.18;;;3.08;;
48813;SDS011;34634;44.108;3.074;2022-09-01T13:48:20;5.13;;;3.00;;
48813;SDS011;34634;44.108;3.074;2022-09-01T13:50:47;8.40;;;3.15;;
48813;SDS011;34634;44.108;3.074;2022-09-01T13:53:14;6.57;;;3.20;;
48813;SDS011;34634;44.108;3.074;2022-09-01T13:55:41;6.18;;;3.08;;
48813;SDS011;34634;44.108;3.074;2022-09-01T13:58:07;4.13;;;3.13;;
48813;SDS011;34634;44.108;3.074;2022-09-01T14:00:36;5.68;;;2.75;;
48813;SDS011;34634;44.108;3.074;2022-09-01T14:03:07;3.65;;;2.88;;
48813;SDS011;34634;44.108;3.074;2022-09-01T14:05:35;5.25;;;3.15;;
48813;SDS011;34634;44.108;3.074;2022-09-01T14:08:02;4.40;;;2.72;;
48813;SDS011;34634;44.108;3.074;2022-09-01T14:10:29;4.03;;;3.00;;
48813;SDS011;34634;44.108;3.074;2022-09-01T14:12:56;8.27;;;2.90;;
48813;SDS011;34634;44.108;3.074;2022-09-01T14:15:23;3.72;;;2.92;;
48813;SDS011;34634;44.108;3.074;2022-09-01T14:17:50;8.43;;;3.17;;
48813;SDS011;34634;44.108;3.074;2022-09-01T14:20:18;4.68;;;3.03;;
48813;SDS011;34634;44.108;3.074;2022-09-01T14:22:45;4.88;;;3.17;;
48813;SDS011;34634;44.108;3.074;2022-09-01T14:25:12;9.02;;;3.40;;
48813;SDS011;34634;44.108;3.074;2022-09-01T14:27:38;4.43;;;2.78;;
48813;SDS011;34634;44.108;3.074;2022-09-01T14:30:05;2.97;;;2.67;;
48813;SDS011;34634;44.108;3.074;2022-09-01T14:32:32;4.13;;;2.92;;
48813;SDS011;34634;44.108;3.074;2022-09-01T14:34:59;7.22;;;2.63;;
48813;SDS011;34634;44.108;3.074;2022-09-01T14:37:26;5.50;;;2.88;;
48813;SDS011;34634;44.108;3.074;2022-09-01T14:39:53;6.03;;;2.92;;
48813;SDS011;34634;44.108;3.074;2022-09-01T14:42:20;3.33;;;2.83;;
48813;SDS011;34634;44.108;3.074;2022-09-01T14:44:48;4.50;;;2.78;;
48813;SDS011;34634;44.108;3.074;2022-09-01T14:47:14;13.35;;;3.30;;
48813;SDS011;34634;44.108;3.074;2022-09-01T14:49:41;5.95;;;2.72;;
48813;SDS011;34634;44.108;3.074;2022-09-01T14:52:08;3.55;;;2.50;;
48813;SDS011;34634;44.108;3.074;2022-09-01T14:54:35;8.48;;;2.85;;
48813;SDS011;34634;44.108;3.074;2022-09-01T14:57:02;4.55;;;2.50;;
48813;SDS011;34634;44.108;3.074;2022-09-01T14:59:29;12.85;;;2.40;;
48813;SDS011;34634;44.108;3.074;2022-09-01T15:01:55;3.80;;;2.13;;
48813;SDS011;34634;44.108;3.074;2022-09-01T15:04:21;7.30;;;2.45;;
48813;SDS011;34634;44.108;3.074;2022-09-01T15:06:48;6.03;;;2.50;;
48813;SDS011;34634;44.108;3.074;2022-09-01T15:09:14;5.47;;;2.30;;
48813;SDS011;34634;44.108;3.074;2022-09-01T15:11:41;5.80;;;2.33;;
48813;SDS011;34634;44.108;3.074;2022-09-01T15:14:07;3.03;;;2.38;;
48813;SDS011;34634;44.108;3.074;2022-09-01T15:16:34;5.18;;;2.22;;
48813;SDS011;34634;44.108;3.074;2022-09-01T15:19:05;3.30;;;2.42;;
48813;SDS011;34634;44.108;3.074;2022-09-01T15:21:33;4.25;;;2.30;;
48813;SDS011;34634;44.108;3.074;2022-09-01T15:24:00;5.22;;;2.72;;
48813;SDS011;34634;44.108;3.074;2022-09-01T15:26:27;4.47;;;2.40;;
48813;SDS011;34634;44.108;3.074;2022-09-01T15:28:53;6.95;;;2.50;;
48813;SDS011;34634;44.108;3.074;2022-09-01T15:31:21;4.28;;;2.97;;
48813;SDS011;34634;44.108;3.074;2022-09-01T15:33:48;5.13;;;2.88;;
48813;SDS011;34634;44.108;3.074;2022-09-01T15:36:16;5.45;;;2.58;;
48813;SDS011;34634;44.108;3.074;2022-09-01T15:38:43;3.97;;;2.60;;
48813;SDS011;34634;44.108;3.074;2022-09-01T15:41:16;7.15;;;2.88;;
48813;SDS011;34634;44.108;3.074;2022-09-01T15:43:43;3.00;;;2.70;;
48813;SDS011;34634;44.108;3.074;2022-09-01T15:46:09;3.00;;;2.40;;
48813;SDS011;34634;44.108;3.074;2022-09-01T15:48:36;8.40;;;3.35;;
48813;SDS011;34634;44.108;3.074;2022-09-01T15:53:40;2.97;;;2.67;;
48813;SDS011;34634;44.108;3.074;2022-09-01T15:56:06;3.10;;;2.75;;
48813;SDS011;34634;44.108;3.074;2022-09-01T15:58:32;5.55;;;2.35;;
48813;SDS011;34634;44.108;3.074;2022-09-01T16:00:59;3.83;;;2.67;;
48813;SDS011;34634;44.108;3.074;2022-09-01T16:03:26;4.97;;;2.50;;
48813;SDS011;34634;44.108;3.074;2022-09-01T16:05:54;3.47;;;2.85;;
48813;SDS011;34634;44.108;3.074;2022-09-01T16:08:20;5.63;;;2.80;;
48813;SDS011;34634;44.108;3.074;2022-09-01T16:10:47;4.22;;;2.75;;
48813;SDS011;34634;44.108;3.074;2022-09-01T16:13:13;4.15;;;2.50;;
48813;SDS011;34634;44.108;3.074;2022-09-01T16:15:40;5.10;;;2.60;;
48813;SDS011;34634;44.108;3.074;2022-09-01T16:18:31;3.25;;;2.35;;
48813;SDS011;34634;44.108;3.074;2022-09-01T16:23:57;4.75;;;2.45;;
48813;SDS011;34634;44.108;3.074;2022-09-01T16:26:27;4.18;;;2.50;;
48813;SDS011;34634;44.108;3.074;2022-09-01T16:28:55;3.58;;;2.30;;
48813;SDS011;34634;44.108;3.074;2022-09-01T16:31:26;5.78;;;2.67;;